Baton Rouge, Louisiana
Current Conditions -  °F | °C
As of 2:53 PM on Friday 21 Nov 2014 (Local Time) from KBTR Reporting Station
Clear Clear  
Wind Chill: 21°   Ceiling: Unl
Heat Index: 21°   Visibility: 10mi
Dew Point:   Wind: 15mph
Humidity: 42%   Direction: 90°E
Pressure: 30.21"   Gusts: NA
Location:  30.44°N, 91.19°W
Report Text: KBTR 212053Z 09013KT 10SM CLR 21/08 A3021 RMK AO2 SLP229 T02110078 56015
Loading
Personal Weather Stations






























Interactive Weather Map New forecast layout! Learn more

10-Day Weather Forecast

Advertisements
Track Severe Weather on mobile